Ashtabula, Ohio
Current Conditions -  °F | °C
As of 9:53 PM on Monday 26 Jan 2015 (Local Time) from KHZY Reporting Station
Light Snow Light Snow  
Wind Chill: 12°   Ceiling: 1400
Heat Index: 20°   Visibility: 8mi
Dew Point: 15°   Wind: 6mph
Humidity: 81%   Direction: 30°NNE
Pressure: 29.89"   Gusts: NA
Location:  41.89°N, 80.79°W
Report Text: KHZY 270253Z AUTO 03005KT 8SM -SN OVC014 M07/M09 A2989 RMK AO2 SLP135 P0000 60000 T10671094 51006
Loading
Personal Weather Stations






























Interactive Weather Map New forecast layout! Learn more

10-Day Weather Forecast

Advertisements
Track Severe Weather on mobile